sensor_id;sensor_type;location;lat;lon;timestamp;pressure;altitude;pressure_sealevel;temperature;humidity
72585;BME280;60618;40.084;32.908;2023-04-03T00:00:38;89196.56;;;8.93;83.65
72585;BME280;60618;40.084;32.908;2023-04-03T00:03:05;89193.34;;;8.89;83.93
72585;BME280;60618;40.084;32.908;2023-04-03T00:05:32;89195.56;;;8.90;84.00
72585;BME280;60618;40.084;32.908;2023-04-03T00:07:59;89206.63;;;8.89;84.52
72585;BME280;60618;40.084;32.908;2023-04-03T00:10:26;89211.44;;;8.85;83.98
72585;BME280;60618;40.084;32.908;2023-04-03T00:12:53;89195.50;;;8.85;84.49
72585;BME280;60618;40.084;32.908;2023-04-03T00:15:20;89201.31;;;8.89;84.06
72585;BME280;60618;40.084;32.908;2023-04-03T00:17:46;89206.34;;;8.81;84.11
72585;BME280;60618;40.084;32.908;2023-04-03T00:20:14;89200.47;;;8.77;84.52
72585;BME280;60618;40.084;32.908;2023-04-03T00:22:40;89193.72;;;8.76;85.43
72585;BME280;60618;40.084;32.908;2023-04-03T00:25:08;89200.28;;;8.80;84.50
72585;BME280;60618;40.084;32.908;2023-04-03T00:27:39;89197.16;;;8.82;84.04
72585;BME280;60618;40.084;32.908;2023-04-03T00:30:08;89209.72;;;8.81;85.15
72585;BME280;60618;40.084;32.908;2023-04-03T00:32:37;89207.31;;;8.84;85.46
72585;BME280;60618;40.084;32.908;2023-04-03T00:35:04;89209.72;;;8.81;85.48
72585;BME280;60618;40.084;32.908;2023-04-03T00:37:32;89201.28;;;8.83;85.67
72585;BME280;60618;40.084;32.908;2023-04-03T00:39:59;89194.31;;;8.86;85.06
72585;BME280;60618;40.084;32.908;2023-04-03T00:42:26;89194.09;;;8.89;85.03
72585;BME280;60618;40.084;32.908;2023-04-03T00:47:19;89188.03;;;8.89;85.07
72585;BME280;60618;40.084;32.908;2023-04-03T00:49:46;89189.47;;;8.84;84.88
72585;BME280;60618;40.084;32.908;2023-04-03T00:52:16;89192.63;;;8.88;85.10
72585;BME280;60618;40.084;32.908;2023-04-03T00:54:45;89193.63;;;8.91;84.18
72585;BME280;60618;40.084;32.908;2023-04-03T00:57:14;89197.53;;;8.95;84.91
72585;BME280;60618;40.084;32.908;2023-04-03T00:59:48;89188.78;;;8.89;86.00
72585;BME280;60618;40.084;32.908;2023-04-03T01:02:17;89201.84;;;8.93;86.24
72585;BME280;60618;40.084;32.908;2023-04-03T01:04:44;89205.72;;;8.92;86.16
72585;BME280;60618;40.084;32.908;2023-04-03T01:09:42;89194.69;;;8.78;87.01
72585;BME280;60618;40.084;32.908;2023-04-03T01:14:45;89194.34;;;8.65;86.16
72585;BME280;60618;40.084;32.908;2023-04-03T01:17:42;89185.91;;;8.67;86.42
72585;BME280;60618;40.084;32.908;2023-04-03T01:20:42;89181.06;;;8.65;87.41
72585;BME280;60618;40.084;32.908;2023-04-03T01:23:23;89185.03;;;8.75;86.66
72585;BME280;60618;40.084;32.908;2023-04-03T01:25:54;89173.22;;;8.76;86.16
72585;BME280;60618;40.084;32.908;2023-04-03T01:28:32;89187.28;;;8.82;85.78
72585;BME280;60618;40.084;32.908;2023-04-03T01:31:27;89179.34;;;8.88;85.57
72585;BME280;60618;40.084;32.908;2023-04-03T01:33:58;89182.47;;;8.87;85.48
72585;BME280;60618;40.084;32.908;2023-04-03T01:36:28;89181.28;;;8.88;84.99
72585;BME280;60618;40.084;32.908;2023-04-03T01:38:56;89179.16;;;8.92;84.00
72585;BME280;60618;40.084;32.908;2023-04-03T01:41:23;89184.78;;;8.99;84.47
72585;BME280;60618;40.084;32.908;2023-04-03T01:43:50;89188.84;;;8.95;84.08
72585;BME280;60618;40.084;32.908;2023-04-03T01:46:18;89195.19;;;9.03;83.74
72585;BME280;60618;40.084;32.908;2023-04-03T01:48:45;89188.38;;;8.96;84.58
72585;BME280;60618;40.084;32.908;2023-04-03T01:51:12;89191.97;;;8.93;85.05
72585;BME280;60618;40.084;32.908;2023-04-03T01:53:39;89191.75;;;8.97;85.39
72585;BME280;60618;40.084;32.908;2023-04-03T01:56:06;89189.88;;;9.03;84.69
72585;BME280;60618;40.084;32.908;2023-04-03T01:58:34;89194.00;;;9.04;84.79
72585;BME280;60618;40.084;32.908;2023-04-03T02:01:01;89200.50;;;9.03;85.37
72585;BME280;60618;40.084;32.908;2023-04-03T02:03:28;89195.97;;;9.09;84.77
72585;BME280;60618;40.084;32.908;2023-04-03T02:05:55;89196.44;;;9.07;84.79
72585;BME280;60618;40.084;32.908;2023-04-03T02:08:21;89191.41;;;9.09;85.15
72585;BME280;60618;40.084;32.908;2023-04-03T02:10:49;89199.06;;;9.02;85.58
72585;BME280;60618;40.084;32.908;2023-04-03T02:13:17;89182.91;;;9.05;85.54
72585;BME280;60618;40.084;32.908;2023-04-03T02:15:44;89197.69;;;8.86;86.04
72585;BME280;60618;40.084;32.908;2023-04-03T02:18:12;89194.31;;;8.86;86.11
72585;BME280;60618;40.084;32.908;2023-04-03T02:20:39;89199.09;;;8.81;86.60
72585;BME280;60618;40.084;32.908;2023-04-03T02:23:06;89200.81;;;8.85;86.27
72585;BME280;60618;40.084;32.908;2023-04-03T02:25:33;89206.06;;;8.79;85.93
72585;BME280;60618;40.084;32.908;2023-04-03T02:28:04;89199.09;;;8.81;85.52
72585;BME280;60618;40.084;32.908;2023-04-03T02:30:31;89213.44;;;8.90;85.52
72585;BME280;60618;40.084;32.908;2023-04-03T02:32:58;89214.41;;;8.92;85.46
72585;BME280;60618;40.084;32.908;2023-04-03T02:35:25;89218.19;;;8.86;85.39
72585;BME280;60618;40.084;32.908;2023-04-03T02:37:52;89214.34;;;8.87;84.52
72585;BME280;60618;40.084;32.908;2023-04-03T02:40:19;89212.38;;;8.81;85.56
72585;BME280;60618;40.084;32.908;2023-04-03T02:42:47;89215.84;;;8.67;85.83
72585;BME280;60618;40.084;32.908;2023-04-03T02:45:14;89219.94;;;8.68;86.52
72585;BME280;60618;40.084;32.908;2023-04-03T02:47:40;89230.38;;;8.72;86.35
72585;BME280;60618;40.084;32.908;2023-04-03T02:50:08;89229.56;;;8.66;86.94
72585;BME280;60618;40.084;32.908;2023-04-03T02:52:35;89222.13;;;8.70;87.17
72585;BME280;60618;40.084;32.908;2023-04-03T02:55:02;89232.50;;;8.68;87.29
72585;BME280;60618;40.084;32.908;2023-04-03T02:57:29;89226.84;;;8.60;87.40
72585;BME280;60618;40.084;32.908;2023-04-03T02:59:56;89232.75;;;8.70;87.30
72585;BME280;60618;40.084;32.908;2023-04-03T03:02:22;89229.09;;;8.67;87.50
72585;BME280;60618;40.084;32.908;2023-04-03T03:04:49;89222.22;;;8.55;87.85
72585;BME280;60618;40.084;32.908;2023-04-03T03:07:16;89228.84;;;8.45;88.53
72585;BME280;60618;40.084;32.908;2023-04-03T03:09:43;89231.03;;;8.46;88.75
72585;BME280;60618;40.084;32.908;2023-04-03T03:12:10;89229.97;;;8.38;88.53
72585;BME280;60618;40.084;32.908;2023-04-03T03:14:37;89243.84;;;8.33;89.45
72585;BME280;60618;40.084;32.908;2023-04-03T03:17:04;89235.66;;;8.51;89.05
72585;BME280;60618;40.084;32.908;2023-04-03T03:19:31;89243.03;;;8.62;87.88
72585;BME280;60618;40.084;32.908;2023-04-03T03:21:58;89250.72;;;8.60;88.64
72585;BME280;60618;40.084;32.908;2023-04-03T03:24:24;89251.91;;;8.79;87.40
72585;BME280;60618;40.084;32.908;2023-04-03T03:26:51;89255.69;;;8.93;86.61
72585;BME280;60618;40.084;32.908;2023-04-03T03:29:18;89252.19;;;9.02;86.37
72585;BME280;60618;40.084;32.908;2023-04-03T03:31:45;89254.56;;;9.00;85.83
72585;BME280;60618;40.084;32.908;2023-04-03T03:34:12;89244.47;;;9.04;85.74
72585;BME280;60618;40.084;32.908;2023-04-03T03:36:39;89243.72;;;9.03;85.39
72585;BME280;60618;40.084;32.908;2023-04-03T03:39:06;89253.88;;;9.05;85.82
72585;BME280;60618;40.084;32.908;2023-04-03T03:41:33;89254.69;;;9.11;84.84
72585;BME280;60618;40.084;32.908;2023-04-03T03:44:00;89241.16;;;9.09;85.04
72585;BME280;60618;40.084;32.908;2023-04-03T03:46:27;89239.25;;;9.15;84.97
72585;BME280;60618;40.084;32.908;2023-04-03T03:48:54;89244.56;;;9.15;84.25
72585;BME280;60618;40.084;32.908;2023-04-03T03:51:21;89252.38;;;9.24;84.70
72585;BME280;60618;40.084;32.908;2023-04-03T03:53:48;89251.41;;;9.22;83.70
72585;BME280;60618;40.084;32.908;2023-04-03T03:56:14;89257.38;;;8.91;85.70
72585;BME280;60618;40.084;32.908;2023-04-03T03:58:41;89260.84;;;8.56;87.60
72585;BME280;60618;40.084;32.908;2023-04-03T04:01:09;89255.38;;;8.45;89.34
72585;BME280;60618;40.084;32.908;2023-04-03T04:03:36;89255.50;;;8.36;89.03
72585;BME280;60618;40.084;32.908;2023-04-03T04:06:03;89256.84;;;8.46;88.79
72585;BME280;60618;40.084;32.908;2023-04-03T04:08:30;89253.91;;;8.44;88.87
72585;BME280;60618;40.084;32.908;2023-04-03T04:10:57;89262.34;;;8.42;88.40
72585;BME280;60618;40.084;32.908;2023-04-03T04:13:24;89256.25;;;8.36;89.04
72585;BME280;60618;40.084;32.908;2023-04-03T04:15:51;89263.47;;;8.36;89.59
72585;BME280;60618;40.084;32.908;2023-04-03T04:18:18;89270.00;;;8.55;88.68
72585;BME280;60618;40.084;32.908;2023-04-03T04:20:45;89276.03;;;8.76;87.82
72585;BME280;60618;40.084;32.908;2023-04-03T04:23:12;89274.09;;;8.97;87.17
72585;BME280;60618;40.084;32.908;2023-04-03T04:25:40;89273.78;;;9.15;86.30
72585;BME280;60618;40.084;32.908;2023-04-03T04:28:06;89277.50;;;9.23;85.92
72585;BME280;60618;40.084;32.908;2023-04-03T04:30:33;89277.34;;;9.32;85.87
72585;BME280;60618;40.084;32.908;2023-04-03T04:33:00;89279.34;;;9.37;85.69
72585;BME280;60618;40.084;32.908;2023-04-03T04:35:27;89282.84;;;9.49;85.34
72585;BME280;60618;40.084;32.908;2023-04-03T04:37:54;89279.53;;;9.60;84.40
72585;BME280;60618;40.084;32.908;2023-04-03T04:40:21;89273.34;;;9.68;84.55
72585;BME280;60618;40.084;32.908;2023-04-03T04:42:48;89279.75;;;9.82;83.59
72585;BME280;60618;40.084;32.908;2023-04-03T04:45:15;89280.56;;;9.94;83.89
72585;BME280;60618;40.084;32.908;2023-04-03T04:47:41;89279.34;;;9.95;83.12
72585;BME280;60618;40.084;32.908;2023-04-03T04:50:09;89272.63;;;10.00;83.68
72585;BME280;60618;40.084;32.908;2023-04-03T04:52:36;89279.09;;;9.93;84.04
72585;BME280;60618;40.084;32.908;2023-04-03T04:55:03;89269.28;;;9.73;83.42
72585;BME280;60618;40.084;32.908;2023-04-03T04:57:30;89274.84;;;9.49;82.94
72585;BME280;60618;40.084;32.908;2023-04-03T04:59:57;89278.97;;;9.50;84.24
72585;BME280;60618;40.084;32.908;2023-04-03T05:02:24;89274.91;;;9.55;84.29
72585;BME280;60618;40.084;32.908;2023-04-03T05:04:51;89287.25;;;9.58;85.53
72585;BME280;60618;40.084;32.908;2023-04-03T05:07:18;89280.94;;;9.81;86.45
72585;BME280;60618;40.084;32.908;2023-04-03T05:09:47;89294.16;;;10.02;85.17
72585;BME280;60618;40.084;32.908;2023-04-03T05:12:14;89298.69;;;9.95;83.66
72585;BME280;60618;40.084;32.908;2023-04-03T05:14:41;89309.56;;;9.66;85.02
72585;BME280;60618;40.084;32.908;2023-04-03T05:17:13;89300.47;;;9.47;84.38
72585;BME280;60618;40.084;32.908;2023-04-03T05:19:40;89305.56;;;9.50;85.17
72585;BME280;60618;40.084;32.908;2023-04-03T05:22:07;89311.38;;;9.28;87.67
72585;BME280;60618;40.084;32.908;2023-04-03T05:24:37;89305.13;;;9.31;88.39
72585;BME280;60618;40.084;32.908;2023-04-03T05:27:04;89306.59;;;9.32;89.56
72585;BME280;60618;40.084;32.908;2023-04-03T05:29:31;89301.19;;;9.47;88.65
72585;BME280;60618;40.084;32.908;2023-04-03T05:31:58;89301.59;;;9.66;88.08
72585;BME280;60618;40.084;32.908;2023-04-03T05:34:25;89308.78;;;9.60;86.95
72585;BME280;60618;40.084;32.908;2023-04-03T05:36:51;89303.25;;;9.37;83.93
72585;BME280;60618;40.084;32.908;2023-04-03T05:39:19;89308.59;;;9.37;83.41
72585;BME280;60618;40.084;32.908;2023-04-03T05:41:46;89301.13;;;9.42;81.84
72585;BME280;60618;40.084;32.908;2023-04-03T05:44:12;89303.78;;;9.42;81.27
72585;BME280;60618;40.084;32.908;2023-04-03T05:46:39;89305.97;;;9.43;81.46
72585;BME280;60618;40.084;32.908;2023-04-03T05:49:06;89307.69;;;9.46;81.16
72585;BME280;60618;40.084;32.908;2023-04-03T05:51:35;89296.09;;;9.44;80.56
72585;BME280;60618;40.084;32.908;2023-04-03T05:54:24;89293.84;;;9.36;81.02
72585;BME280;60618;40.084;32.908;2023-04-03T05:56:52;89295.94;;;9.32;81.03
72585;BME280;60618;40.084;32.908;2023-04-03T05:59:20;89306.31;;;9.30;81.63
72585;BME280;60618;40.084;32.908;2023-04-03T06:01:47;89300.44;;;9.21;80.94
72585;BME280;60618;40.084;32.908;2023-04-03T06:04:15;89295.34;;;9.17;82.89
72585;BME280;60618;40.084;32.908;2023-04-03T06:07:02;89268.94;;;9.14;82.74
72585;BME280;60618;40.084;32.908;2023-04-03T06:09:29;89275.31;;;9.22;82.84
72585;BME280;60618;40.084;32.908;2023-04-03T06:11:57;89270.25;;;9.24;82.41
72585;BME280;60618;40.084;32.908;2023-04-03T06:14:25;89279.03;;;9.30;83.46
72585;BME280;60618;40.084;32.908;2023-04-03T06:16:53;89285.31;;;9.32;83.37
72585;BME280;60618;40.084;32.908;2023-04-03T06:19:20;89289.03;;;9.41;81.78
72585;BME280;60618;40.084;32.908;2023-04-03T06:21:47;89300.66;;;9.43;81.60
72585;BME280;60618;40.084;32.908;2023-04-03T06:24:15;89311.25;;;9.63;82.31
72585;BME280;60618;40.084;32.908;2023-04-03T06:26:43;89297.09;;;9.78;82.05
72585;BME280;60618;40.084;32.908;2023-04-03T06:29:10;89298.63;;;9.84;81.85
72585;BME280;60618;40.084;32.908;2023-04-03T06:31:37;89300.84;;;9.91;81.04
72585;BME280;60618;40.084;32.908;2023-04-03T06:34:04;89297.78;;;9.99;81.53
72585;BME280;60618;40.084;32.908;2023-04-03T06:36:34;89298.31;;;10.08;81.03
72585;BME280;60618;40.084;32.908;2023-04-03T06:39:02;89303.41;;;10.12;80.09
72585;BME280;60618;40.084;32.908;2023-04-03T06:41:29;89301.13;;;10.25;80.56
72585;BME280;60618;40.084;32.908;2023-04-03T06:43:57;89306.50;;;10.73;80.80
72585;BME280;60618;40.084;32.908;2023-04-03T06:46:25;89308.41;;;11.21;76.74
72585;BME280;60618;40.084;32.908;2023-04-03T06:48:52;89318.22;;;11.63;77.34
72585;BME280;60618;40.084;32.908;2023-04-03T06:51:24;89318.03;;;11.78;72.86
72585;BME280;60618;40.084;32.908;2023-04-03T06:53:53;89326.34;;;12.08;71.69
72585;BME280;60618;40.084;32.908;2023-04-03T06:56:21;89317.38;;;12.23;71.66
72585;BME280;60618;40.084;32.908;2023-04-03T06:58:48;89327.78;;;12.37;70.97
72585;BME280;60618;40.084;32.908;2023-04-03T07:01:16;89322.19;;;12.46;67.58
72585;BME280;60618;40.084;32.908;2023-04-03T07:03:43;89336.28;;;12.47;67.27
72585;BME280;60618;40.084;32.908;2023-04-03T07:06:15;89341.63;;;12.69;67.55
72585;BME280;60618;40.084;32.908;2023-04-03T07:08:43;89345.25;;;12.66;64.39
72585;BME280;60618;40.084;32.908;2023-04-03T07:11:11;89342.34;;;12.36;64.04
72585;BME280;60618;40.084;32.908;2023-04-03T07:13:39;89353.53;;;12.40;67.62
72585;BME280;60618;40.084;32.908;2023-04-03T07:16:06;89348.66;;;12.56;69.35
72585;BME280;60618;40.084;32.908;2023-04-03T07:18:33;89348.19;;;12.68;65.69
72585;BME280;60618;40.084;32.908;2023-04-03T07:21:02;89356.66;;;12.95;65.38
72585;BME280;60618;40.084;32.908;2023-04-03T07:23:29;89359.28;;;13.00;64.55
72585;BME280;60618;40.084;32.908;2023-04-03T07:25:56;89362.91;;;13.25;65.63
72585;BME280;60618;40.084;32.908;2023-04-03T07:28:23;89361.91;;;13.28;63.54
72585;BME280;60618;40.084;32.908;2023-04-03T07:30:52;89370.25;;;12.97;63.75
72585;BME280;60618;40.084;32.908;2023-04-03T07:33:21;89366.31;;;13.31;65.22
72585;BME280;60618;40.084;32.908;2023-04-03T07:35:49;89361.41;;;13.35;63.23
72585;BME280;60618;40.084;32.908;2023-04-03T07:38:16;89365.81;;;13.27;61.67
72585;BME280;60618;40.084;32.908;2023-04-03T07:40:50;89367.44;;;13.53;63.89
72585;BME280;60618;40.084;32.908;2023-04-03T07:43:18;89366.03;;;13.35;60.69
72585;BME280;60618;40.084;32.908;2023-04-03T07:45:46;89360.91;;;13.37;63.86
72585;BME280;60618;40.084;32.908;2023-04-03T07:48:13;89360.00;;;13.12;60.86
72585;BME280;60618;40.084;32.908;2023-04-03T07:50:40;89358.75;;;13.19;63.40
72585;BME280;60618;40.084;32.908;2023-04-03T07:53:08;89361.09;;;13.61;64.03
72585;BME280;60618;40.084;32.908;2023-04-03T07:55:35;89365.28;;;13.46;61.70
72585;BME280;60618;40.084;32.908;2023-04-03T07:58:03;89363.97;;;13.69;61.01
72585;BME280;60618;40.084;32.908;2023-04-03T08:00:30;89357.69;;;13.55;62.67
72585;BME280;60618;40.084;32.908;2023-04-03T08:02:56;89353.19;;;13.11;61.01
72585;BME280;60618;40.084;32.908;2023-04-03T08:05:24;89362.69;;;13.06;62.69
72585;BME280;60618;40.084;32.908;2023-04-03T08:07:50;89360.41;;;13.50;65.12
72585;BME280;60618;40.084;32.908;2023-04-03T08:10:17;89360.16;;;13.48;61.47
72585;BME280;60618;40.084;32.908;2023-04-03T08:12:48;89358.34;;;13.73;58.58
72585;BME280;60618;40.084;32.908;2023-04-03T08:15:15;89366.13;;;13.76;59.96
72585;BME280;60618;40.084;32.908;2023-04-03T08:17:42;89358.31;;;13.84;58.39
72585;BME280;60618;40.084;32.908;2023-04-03T08:20:09;89360.09;;;13.64;61.68
72585;BME280;60618;40.084;32.908;2023-04-03T08:22:36;89366.31;;;13.89;59.58
72585;BME280;60618;40.084;32.908;2023-04-03T08:25:04;89362.75;;;13.64;58.23
72585;BME280;60618;40.084;32.908;2023-04-03T08:27:31;89358.56;;;13.75;58.59
72585;BME280;60618;40.084;32.908;2023-04-03T08:29:58;89357.25;;;13.98;56.58
72585;BME280;60618;40.084;32.908;2023-04-03T08:32:25;89360.06;;;14.17;58.69
72585;BME280;60618;40.084;32.908;2023-04-03T08:34:52;89363.84;;;14.38;55.80
72585;BME280;60618;40.084;32.908;2023-04-03T08:37:19;89363.47;;;14.17;54.39
72585;BME280;60618;40.084;32.908;2023-04-03T08:39:46;89366.94;;;14.07;56.94
72585;BME280;60618;40.084;32.908;2023-04-03T08:48:20;89360.38;;;14.49;54.76
72585;BME280;60618;40.084;32.908;2023-04-03T08:50:53;89364.28;;;14.42;53.27
72585;BME280;60618;40.084;32.908;2023-04-03T08:53:21;89362.25;;;14.18;56.36
72585;BME280;60618;40.084;32.908;2023-04-03T08:55:51;89354.75;;;14.11;57.01
72585;BME280;60618;40.084;32.908;2023-04-03T08:58:30;89361.69;;;14.31;60.45
72585;BME280;60618;40.084;32.908;2023-04-03T09:01:06;89345.00;;;14.50;55.84
72585;BME280;60618;40.084;32.908;2023-04-03T09:03:38;89348.94;;;14.73;52.51
72585;BME280;60618;40.084;32.908;2023-04-03T09:06:11;89348.09;;;14.89;52.78
72585;BME280;60618;40.084;32.908;2023-04-03T09:09:06;89337.81;;;15.18;53.62
72585;BME280;60618;40.084;32.908;2023-04-03T09:14:27;89338.94;;;15.03;52.14
72585;BME280;60618;40.084;32.908;2023-04-03T09:17:03;89344.31;;;15.03;50.38
72585;BME280;60618;40.084;32.908;2023-04-03T09:22:11;89340.94;;;15.22;52.24
72585;BME280;60618;40.084;32.908;2023-04-03T09:24:41;89342.28;;;15.10;48.08
72585;BME280;60618;40.084;32.908;2023-04-03T09:27:11;89334.00;;;15.32;47.04
72585;BME280;60618;40.084;32.908;2023-04-03T09:29:41;89335.63;;;15.41;47.59
72585;BME280;60618;40.084;32.908;2023-04-03T09:32:32;89338.28;;;15.22;46.97
72585;BME280;60618;40.084;32.908;2023-04-03T09:35:04;89338.81;;;15.15;47.44
72585;BME280;60618;40.084;32.908;2023-04-03T09:37:58;89338.78;;;14.96;47.50
72585;BME280;60618;40.084;32.908;2023-04-03T09:42:54;89341.34;;;15.07;49.92
72585;BME280;60618;40.084;32.908;2023-04-03T09:45:32;89344.50;;;15.54;42.94
72585;BME280;60618;40.084;32.908;2023-04-03T09:56:00;89342.50;;;15.60;48.60
72585;BME280;60618;40.084;32.908;2023-04-03T09:58:30;89332.53;;;15.55;45.31
72585;BME280;60618;40.084;32.908;2023-04-03T10:04:16;89332.19;;;16.40;42.50
72585;BME280;60618;40.084;32.908;2023-04-03T10:09:18;89325.13;;;17.01;42.72
72585;BME280;60618;40.084;32.908;2023-04-03T10:14:28;89314.69;;;17.24;41.43
72585;BME280;60618;40.084;32.908;2023-04-03T10:17:05;89318.50;;;17.15;42.57
72585;BME280;60618;40.084;32.908;2023-04-03T10:25:46;89311.03;;;16.82;39.79
72585;BME280;60618;40.084;32.908;2023-04-03T10:31:25;89309.38;;;16.60;38.86
72585;BME280;60618;40.084;32.908;2023-04-03T10:34:09;89297.81;;;16.65;41.17
72585;BME280;60618;40.084;32.908;2023-04-03T10:39:32;89313.53;;;17.59;39.82
72585;BME280;60618;40.084;32.908;2023-04-03T10:42:23;89306.25;;;17.94;38.75
72585;BME280;60618;40.084;32.908;2023-04-03T10:48:07;89299.25;;;17.77;37.16
72585;BME280;60618;40.084;32.908;2023-04-03T10:51:00;89295.72;;;17.03;38.84
72585;BME280;60618;40.084;32.908;2023-04-03T10:58:59;89284.75;;;17.41;36.70
72585;BME280;60618;40.084;32.908;2023-04-03T11:01:33;89291.50;;;17.08;36.03
72585;BME280;60618;40.084;32.908;2023-04-03T11:04:04;89289.84;;;17.05;36.77
72585;BME280;60618;40.084;32.908;2023-04-03T11:06:36;89288.59;;;17.45;38.12
72585;BME280;60618;40.084;32.908;2023-04-03T11:11:39;89292.16;;;18.56;35.84
72585;BME280;60618;40.084;32.908;2023-04-03T11:16:46;89292.91;;;18.77;34.68
72585;BME280;60618;40.084;32.908;2023-04-03T11:19:22;89287.78;;;18.66;33.43
72585;BME280;60618;40.084;32.908;2023-04-03T11:22:06;89277.56;;;19.21;35.67
72585;BME280;60618;40.084;32.908;2023-04-03T11:24:38;89265.16;;;19.54;35.10
72585;BME280;60618;40.084;32.908;2023-04-03T11:27:19;89280.72;;;20.05;34.47
72585;BME280;60618;40.084;32.908;2023-04-03T11:29:50;89274.72;;;20.51;34.57
72585;BME280;60618;40.084;32.908;2023-04-03T11:35:02;89278.00;;;20.80;30.28
72585;BME280;60618;40.084;32.908;2023-04-03T11:37:35;89273.06;;;19.81;28.63
72585;BME280;60618;40.084;32.908;2023-04-03T11:40:29;89265.09;;;19.11;30.84
72585;BME280;60618;40.084;32.908;2023-04-03T11:50:51;89266.28;;;20.10;32.03
72585;BME280;60618;40.084;32.908;2023-04-03T11:53:37;89253.25;;;20.60;31.57
72585;BME280;60618;40.084;32.908;2023-04-03T12:04:11;89244.53;;;20.39;30.98
72585;BME280;60618;40.084;32.908;2023-04-03T12:11:56;89251.53;;;19.03;33.52
72585;BME280;60618;40.084;32.908;2023-04-03T12:14:25;89248.88;;;19.39;32.69
72585;BME280;60618;40.084;32.908;2023-04-03T12:16:54;89238.09;;;19.83;32.96
72585;BME280;60618;40.084;32.908;2023-04-03T12:19:38;89235.13;;;20.17;31.30
72585;BME280;60618;40.084;32.908;2023-04-03T12:22:16;89224.84;;;19.56;32.21
72585;BME280;60618;40.084;32.908;2023-04-03T12:24:51;89230.19;;;19.93;33.41
72585;BME280;60618;40.084;32.908;2023-04-03T12:30:07;89218.94;;;20.25;31.76
72585;BME280;60618;40.084;32.908;2023-04-03T12:32:49;89214.66;;;20.75;31.99
72585;BME280;60618;40.084;32.908;2023-04-03T12:35:44;89216.28;;;20.71;31.42
72585;BME280;60618;40.084;32.908;2023-04-03T12:38:41;89210.72;;;19.94;33.56
72585;BME280;60618;40.084;32.908;2023-04-03T12:41:23;89214.44;;;20.35;32.42
72585;BME280;60618;40.084;32.908;2023-04-03T12:46:46;89205.22;;;20.30;31.67
72585;BME280;60618;40.084;32.908;2023-04-03T12:51:47;89203.31;;;19.79;33.16
72585;BME280;60618;40.084;32.908;2023-04-03T12:54:30;89203.22;;;19.56;31.62
72585;BME280;60618;40.084;32.908;2023-04-03T12:57:20;89199.13;;;19.27;31.26
72585;BME280;60618;40.084;32.908;2023-04-03T12:59:48;89200.69;;;19.51;31.06
72585;BME280;60618;40.084;32.908;2023-04-03T13:04:55;89187.94;;;19.67;30.77
72585;BME280;60618;40.084;32.908;2023-04-03T13:07:31;89202.00;;;19.29;30.59
72585;BME280;60618;40.084;32.908;2023-04-03T13:10:15;89203.16;;;18.14;33.00
72585;BME280;60618;40.084;32.908;2023-04-03T13:12:47;89191.44;;;18.32;33.64
72585;BME280;60618;40.084;32.908;2023-04-03T13:17:45;89192.22;;;18.61;32.92
72585;BME280;60618;40.084;32.908;2023-04-03T13:20:28;89190.19;;;18.75;32.84
72585;BME280;60618;40.084;32.908;2023-04-03T13:23:05;89186.59;;;18.31;32.80
72585;BME280;60618;40.084;32.908;2023-04-03T13:25:36;89193.31;;;18.17;33.74
72585;BME280;60618;40.084;32.908;2023-04-03T13:28:05;89198.91;;;18.19;34.10
72585;BME280;60618;40.084;32.908;2023-04-03T13:30:40;89191.91;;;18.23;34.68
72585;BME280;60618;40.084;32.908;2023-04-03T13:33:26;89194.69;;;18.10;33.90
72585;BME280;60618;40.084;32.908;2023-04-03T13:38:31;89198.59;;;18.51;34.09
72585;BME280;60618;40.084;32.908;2023-04-03T13:41:01;89196.00;;;18.37;33.46
72585;BME280;60618;40.084;32.908;2023-04-03T13:43:30;89188.31;;;18.21;34.06
72585;BME280;60618;40.084;32.908;2023-04-03T13:48:41;89187.00;;;17.46;34.44
72585;BME280;60618;40.084;32.908;2023-04-03T13:54:10;89183.75;;;17.60;32.58
72585;BME280;60618;40.084;32.908;2023-04-03T13:56:40;89186.31;;;17.66;34.05
72585;BME280;60618;40.084;32.908;2023-04-03T14:01:55;89189.28;;;17.42;33.96
72585;BME280;60618;40.084;32.908;2023-04-03T14:04:56;89196.97;;;17.38;34.59
72585;BME280;60618;40.084;32.908;2023-04-03T14:07:20;89194.91;;;17.30;34.08
72585;BME280;60618;40.084;32.908;2023-04-03T14:09:47;89194.13;;;17.56;35.22
72585;BME280;60618;40.084;32.908;2023-04-03T14:12:18;89188.03;;;17.56;33.66
72585;BME280;60618;40.084;32.908;2023-04-03T14:14:58;89195.41;;;17.42;33.93
72585;BME280;60618;40.084;32.908;2023-04-03T14:17:25;89192.69;;;17.42;33.54
72585;BME280;60618;40.084;32.908;2023-04-03T14:19:54;89194.81;;;17.36;32.61
72585;BME280;60618;40.084;32.908;2023-04-03T14:22:24;89188.94;;;17.11;32.88
72585;BME280;60618;40.084;32.908;2023-04-03T14:24:52;89195.97;;;17.14;33.76
72585;BME280;60618;40.084;32.908;2023-04-03T14:27:22;89195.34;;;16.95;34.68
72585;BME280;60618;40.084;32.908;2023-04-03T14:29:51;89192.03;;;17.02;34.84
72585;BME280;60618;40.084;32.908;2023-04-03T14:32:21;89193.69;;;17.18;35.07
72585;BME280;60618;40.084;32.908;2023-04-03T14:34:50;89192.13;;;17.36;35.18
72585;BME280;60618;40.084;32.908;2023-04-03T14:37:20;89194.03;;;17.49;35.32
72585;BME280;60618;40.084;32.908;2023-04-03T14:39:49;89182.72;;;17.64;35.14
72585;BME280;60618;40.084;32.908;2023-04-03T14:42:19;89188.22;;;17.58;33.86
72585;BME280;60618;40.084;32.908;2023-04-03T14:44:47;89186.28;;;17.45;33.89
72585;BME280;60618;40.084;32.908;2023-04-03T14:47:17;89187.41;;;17.50;34.90
72585;BME280;60618;40.084;32.908;2023-04-03T14:49:58;89188.25;;;17.45;34.54
72585;BME280;60618;40.084;32.908;2023-04-03T14:52:29;89186.41;;;17.40;34.74
72585;BME280;60618;40.084;32.908;2023-04-03T14:54:57;89182.97;;;17.52;34.59
72585;BME280;60618;40.084;32.908;2023-04-03T14:57:25;89188.91;;;17.38;34.40
72585;BME280;60618;40.084;32.908;2023-04-03T14:59:53;89189.34;;;17.15;34.04
72585;BME280;60618;40.084;32.908;2023-04-03T15:02:32;89193.78;;;17.13;34.84